Brownsville, Oregon
Current Conditions -  °F | °C
As of 11:55 PM on Monday 20 Oct 2014 (Local Time) from KCVO Reporting Station
Overcast Overcast  
Wind Chill: 54°   Ceiling: 7500
Heat Index: 54°   Visibility: 10mi
Dew Point: 50°   Wind: 9mph
Humidity: 88%   Direction: 190°S
Pressure: 29.91"   Gusts: NA
Location:  44.39°N, 122.98°W
Report Text: KCVO 210655Z AUTO 19008KT 10SM SCT055 OVC075 12/10 A2991 RMK AO1
Loading
Personal Weather Stations






























Interactive Weather Map
Tropical Storm Tracking
New forecast layout! Learn more

10-Day Weather Forecast

Advertisements
Track Severe Weather on mobile